sensor_id;sensor_type;location;lat;lon;timestamp;P1;durP1;ratioP1;P2;durP2;ratioP2
12348;SDS011;5974;42.710;27.258;2023-05-01T00:00:22;5.03;;;4.63;;
12348;SDS011;5974;42.710;27.258;2023-05-01T00:02:49;5.53;;;5.10;;
12348;SDS011;5974;42.710;27.258;2023-05-01T00:05:18;5.20;;;4.80;;
12348;SDS011;5974;42.710;27.258;2023-05-01T00:07:44;5.40;;;5.00;;
12348;SDS011;5974;42.710;27.258;2023-05-01T00:10:11;5.40;;;4.90;;
12348;SDS011;5974;42.710;27.258;2023-05-01T00:12:38;5.60;;;5.13;;
12348;SDS011;5974;42.710;27.258;2023-05-01T00:15:05;5.50;;;5.00;;
12348;SDS011;5974;42.710;27.258;2023-05-01T00:17:33;5.47;;;4.97;;
12348;SDS011;5974;42.710;27.258;2023-05-01T00:20:00;5.23;;;4.83;;
12348;SDS011;5974;42.710;27.258;2023-05-01T00:22:30;5.97;;;5.03;;
12348;SDS011;5974;42.710;27.258;2023-05-01T00:24:57;6.20;;;5.60;;
12348;SDS011;5974;42.710;27.258;2023-05-01T00:27:24;5.37;;;4.97;;
12348;SDS011;5974;42.710;27.258;2023-05-01T00:29:51;5.77;;;5.27;;
12348;SDS011;5974;42.710;27.258;2023-05-01T00:32:18;6.33;;;5.80;;
12348;SDS011;5974;42.710;27.258;2023-05-01T00:34:45;6.53;;;5.67;;
12348;SDS011;5974;42.710;27.258;2023-05-01T00:37:12;6.70;;;6.03;;
12348;SDS011;5974;42.710;27.258;2023-05-01T00:39:40;6.53;;;5.93;;
12348;SDS011;5974;42.710;27.258;2023-05-01T00:42:07;6.33;;;5.70;;
12348;SDS011;5974;42.710;27.258;2023-05-01T00:44:34;6.77;;;6.17;;
12348;SDS011;5974;42.710;27.258;2023-05-01T00:47:02;6.50;;;5.90;;
12348;SDS011;5974;42.710;27.258;2023-05-01T00:49:29;5.80;;;5.30;;
12348;SDS011;5974;42.710;27.258;2023-05-01T00:51:56;7.67;;;5.77;;
12348;SDS011;5974;42.710;27.258;2023-05-01T00:54:23;7.60;;;5.80;;
12348;SDS011;5974;42.710;27.258;2023-05-01T00:56:53;6.00;;;5.50;;
12348;SDS011;5974;42.710;27.258;2023-05-01T00:59:20;6.03;;;5.40;;
12348;SDS011;5974;42.710;27.258;2023-05-01T01:01:48;6.07;;;5.57;;
12348;SDS011;5974;42.710;27.258;2023-05-01T01:04:16;5.80;;;5.30;;
12348;SDS011;5974;42.710;27.258;2023-05-01T01:06:45;5.33;;;4.83;;
12348;SDS011;5974;42.710;27.258;2023-05-01T01:09:23;5.43;;;5.03;;
12348;SDS011;5974;42.710;27.258;2023-05-01T01:12:02;6.10;;;5.60;;
12348;SDS011;5974;42.710;27.258;2023-05-01T01:14:35;8.97;;;5.87;;
12348;SDS011;5974;42.710;27.258;2023-05-01T01:17:10;6.57;;;5.97;;
12348;SDS011;5974;42.710;27.258;2023-05-01T01:19:55;6.17;;;5.67;;
12348;SDS011;5974;42.710;27.258;2023-05-01T01:22:40;6.13;;;5.57;;
12348;SDS011;5974;42.710;27.258;2023-05-01T01:28:27;6.03;;;5.53;;
12348;SDS011;5974;42.710;27.258;2023-05-01T01:31:16;11.77;;;6.10;;
12348;SDS011;5974;42.710;27.258;2023-05-01T01:33:53;6.00;;;5.50;;
12348;SDS011;5974;42.710;27.258;2023-05-01T01:36:29;7.67;;;5.93;;
12348;SDS011;5974;42.710;27.258;2023-05-01T01:39:05;5.67;;;5.07;;
12348;SDS011;5974;42.710;27.258;2023-05-01T01:41:37;5.50;;;5.03;;
12348;SDS011;5974;42.710;27.258;2023-05-01T01:44:07;5.90;;;5.40;;
12348;SDS011;5974;42.710;27.258;2023-05-01T01:46:38;5.90;;;5.40;;
12348;SDS011;5974;42.710;27.258;2023-05-01T01:49:11;6.37;;;5.87;;
12348;SDS011;5974;42.710;27.258;2023-05-01T01:51:42;6.00;;;5.50;;
12348;SDS011;5974;42.710;27.258;2023-05-01T01:54:12;6.57;;;5.90;;
12348;SDS011;5974;42.710;27.258;2023-05-01T01:56:43;6.23;;;5.63;;
12348;SDS011;5974;42.710;27.258;2023-05-01T01:59:12;8.87;;;6.43;;
12348;SDS011;5974;42.710;27.258;2023-05-01T02:01:40;6.13;;;5.57;;
12348;SDS011;5974;42.710;27.258;2023-05-01T02:04:10;6.30;;;5.73;;
12348;SDS011;5974;42.710;27.258;2023-05-01T02:06:40;6.20;;;5.70;;
12348;SDS011;5974;42.710;27.258;2023-05-01T02:09:09;6.60;;;5.80;;
12348;SDS011;5974;42.710;27.258;2023-05-01T02:11:37;6.37;;;5.80;;
12348;SDS011;5974;42.710;27.258;2023-05-01T02:14:05;6.67;;;5.77;;
12348;SDS011;5974;42.710;27.258;2023-05-01T02:16:34;5.97;;;5.47;;
12348;SDS011;5974;42.710;27.258;2023-05-01T02:19:02;5.83;;;5.30;;
12348;SDS011;5974;42.710;27.258;2023-05-01T02:21:31;6.13;;;5.57;;
12348;SDS011;5974;42.710;27.258;2023-05-01T02:24:01;8.03;;;6.27;;
12348;SDS011;5974;42.710;27.258;2023-05-01T02:26:30;6.20;;;5.70;;
12348;SDS011;5974;42.710;27.258;2023-05-01T02:29:03;6.17;;;5.60;;
12348;SDS011;5974;42.710;27.258;2023-05-01T02:31:31;6.67;;;5.97;;
12348;SDS011;5974;42.710;27.258;2023-05-01T02:33:58;6.00;;;5.50;;
12348;SDS011;5974;42.710;27.258;2023-05-01T02:36:25;6.13;;;5.50;;
12348;SDS011;5974;42.710;27.258;2023-05-01T02:38:54;5.57;;;5.07;;
12348;SDS011;5974;42.710;27.258;2023-05-01T02:41:21;6.10;;;5.60;;
12348;SDS011;5974;42.710;27.258;2023-05-01T02:43:49;5.57;;;5.10;;
12348;SDS011;5974;42.710;27.258;2023-05-01T02:46:20;6.47;;;5.83;;
12348;SDS011;5974;42.710;27.258;2023-05-01T02:48:51;6.40;;;5.43;;
12348;SDS011;5974;42.710;27.258;2023-05-01T02:51:19;5.60;;;5.10;;
12348;SDS011;5974;42.710;27.258;2023-05-01T02:53:48;6.03;;;5.43;;
12348;SDS011;5974;42.710;27.258;2023-05-01T02:56:17;8.93;;;6.70;;
12348;SDS011;5974;42.710;27.258;2023-05-01T02:58:44;7.77;;;7.07;;
12348;SDS011;5974;42.710;27.258;2023-05-01T03:01:11;7.23;;;6.40;;
12348;SDS011;5974;42.710;27.258;2023-05-01T03:03:38;7.17;;;6.57;;
12348;SDS011;5974;42.710;27.258;2023-05-01T03:06:05;7.33;;;6.63;;
12348;SDS011;5974;42.710;27.258;2023-05-01T03:08:32;7.77;;;7.00;;
12348;SDS011;5974;42.710;27.258;2023-05-01T03:11:03;7.30;;;6.70;;
12348;SDS011;5974;42.710;27.258;2023-05-01T03:13:31;6.57;;;5.97;;
12348;SDS011;5974;42.710;27.258;2023-05-01T03:15:59;7.90;;;7.10;;
12348;SDS011;5974;42.710;27.258;2023-05-01T03:18:26;9.10;;;7.80;;
12348;SDS011;5974;42.710;27.258;2023-05-01T03:20:53;12.27;;;8.77;;
12348;SDS011;5974;42.710;27.258;2023-05-01T03:23:21;12.10;;;9.23;;
12348;SDS011;5974;42.710;27.258;2023-05-01T03:25:48;10.70;;;9.00;;
12348;SDS011;5974;42.710;27.258;2023-05-01T03:28:15;11.63;;;9.20;;
12348;SDS011;5974;42.710;27.258;2023-05-01T03:30:44;13.47;;;11.30;;
12348;SDS011;5974;42.710;27.258;2023-05-01T03:33:11;11.87;;;9.63;;
12348;SDS011;5974;42.710;27.258;2023-05-01T03:35:37;9.70;;;8.67;;
12348;SDS011;5974;42.710;27.258;2023-05-01T03:38:05;9.63;;;8.63;;
12348;SDS011;5974;42.710;27.258;2023-05-01T03:40:32;9.53;;;7.90;;
12348;SDS011;5974;42.710;27.258;2023-05-01T03:42:59;8.73;;;7.87;;
12348;SDS011;5974;42.710;27.258;2023-05-01T03:45:26;14.83;;;10.50;;
12348;SDS011;5974;42.710;27.258;2023-05-01T03:47:54;15.53;;;12.60;;
12348;SDS011;5974;42.710;27.258;2023-05-01T03:50:21;12.50;;;11.17;;
12348;SDS011;5974;42.710;27.258;2023-05-01T03:52:48;13.87;;;10.43;;
12348;SDS011;5974;42.710;27.258;2023-05-01T03:55:15;12.33;;;10.80;;
12348;SDS011;5974;42.710;27.258;2023-05-01T03:57:42;13.20;;;11.20;;
12348;SDS011;5974;42.710;27.258;2023-05-01T04:00:11;12.27;;;10.97;;
12348;SDS011;5974;42.710;27.258;2023-05-01T04:02:39;13.90;;;11.27;;
12348;SDS011;5974;42.710;27.258;2023-05-01T04:05:07;13.07;;;10.67;;
12348;SDS011;5974;42.710;27.258;2023-05-01T04:07:34;12.50;;;9.53;;
12348;SDS011;5974;42.710;27.258;2023-05-01T04:10:01;11.97;;;10.10;;
12348;SDS011;5974;42.710;27.258;2023-05-01T04:12:28;11.50;;;9.73;;
12348;SDS011;5974;42.710;27.258;2023-05-01T04:14:55;13.77;;;9.17;;
12348;SDS011;5974;42.710;27.258;2023-05-01T04:17:22;12.27;;;8.57;;
12348;SDS011;5974;42.710;27.258;2023-05-01T04:19:49;11.17;;;9.20;;
12348;SDS011;5974;42.710;27.258;2023-05-01T04:22:18;9.30;;;8.50;;
12348;SDS011;5974;42.710;27.258;2023-05-01T04:24:44;12.93;;;8.70;;
12348;SDS011;5974;42.710;27.258;2023-05-01T04:27:11;9.87;;;8.50;;
12348;SDS011;5974;42.710;27.258;2023-05-01T04:29:38;10.27;;;8.17;;
12348;SDS011;5974;42.710;27.258;2023-05-01T04:32:05;9.93;;;8.30;;
12348;SDS011;5974;42.710;27.258;2023-05-01T04:34:32;11.27;;;7.57;;
12348;SDS011;5974;42.710;27.258;2023-05-01T04:36:59;8.30;;;7.43;;
12348;SDS011;5974;42.710;27.258;2023-05-01T04:39:29;10.63;;;8.40;;
12348;SDS011;5974;42.710;27.258;2023-05-01T04:41:55;8.97;;;7.83;;
12348;SDS011;5974;42.710;27.258;2023-05-01T04:44:23;11.50;;;8.00;;
12348;SDS011;5974;42.710;27.258;2023-05-01T04:46:50;10.13;;;7.27;;
12348;SDS011;5974;42.710;27.258;2023-05-01T04:49:16;5.30;;;4.40;;
12348;SDS011;5974;42.710;27.258;2023-05-01T04:51:43;6.57;;;3.97;;
12348;SDS011;5974;42.710;27.258;2023-05-01T04:54:10;7.63;;;5.10;;
12348;SDS011;5974;42.710;27.258;2023-05-01T04:56:38;7.00;;;6.30;;
12348;SDS011;5974;42.710;27.258;2023-05-01T04:59:05;11.40;;;8.53;;
12348;SDS011;5974;42.710;27.258;2023-05-01T05:01:32;13.80;;;11.07;;
12348;SDS011;5974;42.710;27.258;2023-05-01T05:03:59;24.07;;;13.87;;
12348;SDS011;5974;42.710;27.258;2023-05-01T05:06:26;13.97;;;11.03;;
12348;SDS011;5974;42.710;27.258;2023-05-01T05:08:52;17.03;;;9.47;;
12348;SDS011;5974;42.710;27.258;2023-05-01T05:11:19;13.90;;;9.57;;
12348;SDS011;5974;42.710;27.258;2023-05-01T05:13:48;13.73;;;9.50;;
12348;SDS011;5974;42.710;27.258;2023-05-01T05:16:14;14.53;;;11.40;;
12348;SDS011;5974;42.710;27.258;2023-05-01T05:18:41;13.70;;;10.57;;
12348;SDS011;5974;42.710;27.258;2023-05-01T05:21:08;12.70;;;10.03;;
12348;SDS011;5974;42.710;27.258;2023-05-01T05:23:35;14.87;;;9.97;;
12348;SDS011;5974;42.710;27.258;2023-05-01T05:26:02;15.67;;;10.73;;
12348;SDS011;5974;42.710;27.258;2023-05-01T05:28:30;13.80;;;11.07;;
12348;SDS011;5974;42.710;27.258;2023-05-01T05:30:58;17.70;;;12.67;;
12348;SDS011;5974;42.710;27.258;2023-05-01T05:33:25;19.73;;;13.20;;
12348;SDS011;5974;42.710;27.258;2023-05-01T05:35:53;15.50;;;12.87;;
12348;SDS011;5974;42.710;27.258;2023-05-01T05:38:20;14.50;;;11.50;;
12348;SDS011;5974;42.710;27.258;2023-05-01T05:40:47;16.00;;;11.13;;
12348;SDS011;5974;42.710;27.258;2023-05-01T05:43:14;15.30;;;11.73;;
12348;SDS011;5974;42.710;27.258;2023-05-01T05:45:41;15.27;;;11.83;;
12348;SDS011;5974;42.710;27.258;2023-05-01T05:48:09;14.23;;;12.10;;
12348;SDS011;5974;42.710;27.258;2023-05-01T05:50:36;14.73;;;12.93;;
12348;SDS011;5974;42.710;27.258;2023-05-01T05:53:02;13.33;;;11.93;;
12348;SDS011;5974;42.710;27.258;2023-05-01T05:55:29;17.70;;;12.10;;
12348;SDS011;5974;42.710;27.258;2023-05-01T05:57:56;16.63;;;11.50;;
12348;SDS011;5974;42.710;27.258;2023-05-01T06:00:23;12.93;;;10.40;;
12348;SDS011;5974;42.710;27.258;2023-05-01T06:02:50;20.70;;;16.20;;
12348;SDS011;5974;42.710;27.258;2023-05-01T06:05:18;20.87;;;16.97;;
12348;SDS011;5974;42.710;27.258;2023-05-01T06:07:45;24.03;;;16.63;;
12348;SDS011;5974;42.710;27.258;2023-05-01T06:10:12;20.60;;;15.23;;
12348;SDS011;5974;42.710;27.258;2023-05-01T06:12:38;22.17;;;13.53;;
12348;SDS011;5974;42.710;27.258;2023-05-01T06:15:06;19.30;;;14.93;;
12348;SDS011;5974;42.710;27.258;2023-05-01T06:17:34;16.67;;;13.80;;
12348;SDS011;5974;42.710;27.258;2023-05-01T06:20:01;19.77;;;13.47;;
12348;SDS011;5974;42.710;27.258;2023-05-01T06:22:31;25.70;;;16.47;;
12348;SDS011;5974;42.710;27.258;2023-05-01T06:24:58;18.93;;;16.37;;
12348;SDS011;5974;42.710;27.258;2023-05-01T06:27:25;23.87;;;16.07;;
12348;SDS011;5974;42.710;27.258;2023-05-01T06:29:52;24.53;;;16.20;;
12348;SDS011;5974;42.710;27.258;2023-05-01T06:32:19;25.30;;;15.03;;
12348;SDS011;5974;42.710;27.258;2023-05-01T06:34:47;16.93;;;13.87;;
12348;SDS011;5974;42.710;27.258;2023-05-01T06:37:14;15.77;;;10.57;;
12348;SDS011;5974;42.710;27.258;2023-05-01T06:39:42;12.10;;;8.10;;
12348;SDS011;5974;42.710;27.258;2023-05-01T06:42:09;8.90;;;7.37;;
12348;SDS011;5974;42.710;27.258;2023-05-01T06:44:40;9.07;;;6.20;;
12348;SDS011;5974;42.710;27.258;2023-05-01T06:47:06;4.97;;;4.10;;
12348;SDS011;5974;42.710;27.258;2023-05-01T06:49:33;9.93;;;5.60;;
12348;SDS011;5974;42.710;27.258;2023-05-01T06:52:00;8.57;;;5.00;;
12348;SDS011;5974;42.710;27.258;2023-05-01T06:54:27;8.37;;;5.10;;
12348;SDS011;5974;42.710;27.258;2023-05-01T06:56:55;5.57;;;2.67;;
12348;SDS011;5974;42.710;27.258;2023-05-01T06:59:22;9.07;;;2.60;;
12348;SDS011;5974;42.710;27.258;2023-05-01T07:01:49;4.90;;;2.10;;
12348;SDS011;5974;42.710;27.258;2023-05-01T07:04:16;3.23;;;2.37;;
12348;SDS011;5974;42.710;27.258;2023-05-01T07:06:43;5.87;;;2.53;;
12348;SDS011;5974;42.710;27.258;2023-05-01T07:09:10;2.63;;;2.10;;
12348;SDS011;5974;42.710;27.258;2023-05-01T07:11:38;3.13;;;2.15;;
12348;SDS011;5974;42.710;27.258;2023-05-01T07:14:06;2.00;;;1.75;;
12348;SDS011;5974;42.710;27.258;2023-05-01T07:16:33;2.92;;;2.00;;
12348;SDS011;5974;42.710;27.258;2023-05-01T07:19:00;3.67;;;2.60;;
12348;SDS011;5974;42.710;27.258;2023-05-01T07:21:27;4.13;;;1.93;;
12348;SDS011;5974;42.710;27.258;2023-05-01T07:23:53;4.85;;;2.40;;
12348;SDS011;5974;42.710;27.258;2023-05-01T07:26:20;2.15;;;2.00;;
12348;SDS011;5974;42.710;27.258;2023-05-01T07:28:47;3.13;;;1.70;;
12348;SDS011;5974;42.710;27.258;2023-05-01T07:31:16;4.18;;;1.92;;
12348;SDS011;5974;42.710;27.258;2023-05-01T07:33:43;1.83;;;1.63;;
12348;SDS011;5974;42.710;27.258;2023-05-01T07:36:10;2.30;;;1.60;;
12348;SDS011;5974;42.710;27.258;2023-05-01T07:38:37;4.07;;;2.13;;
12348;SDS011;5974;42.710;27.258;2023-05-01T07:41:04;5.47;;;1.50;;
12348;SDS011;5974;42.710;27.258;2023-05-01T07:43:30;3.53;;;1.90;;
12348;SDS011;5974;42.710;27.258;2023-05-01T07:45:58;2.97;;;1.60;;
12348;SDS011;5974;42.710;27.258;2023-05-01T07:48:27;3.83;;;1.80;;
12348;SDS011;5974;42.710;27.258;2023-05-01T07:50:54;3.33;;;1.53;;
12348;SDS011;5974;42.710;27.258;2023-05-01T07:53:22;1.70;;;1.60;;
12348;SDS011;5974;42.710;27.258;2023-05-01T07:55:49;6.23;;;4.17;;
12348;SDS011;5974;42.710;27.258;2023-05-01T07:58:15;8.07;;;6.00;;
12348;SDS011;5974;42.710;27.258;2023-05-01T08:00:43;6.40;;;3.07;;
12348;SDS011;5974;42.710;27.258;2023-05-01T08:03:10;2.03;;;1.60;;
12348;SDS011;5974;42.710;27.258;2023-05-01T08:05:39;7.57;;;3.17;;
12348;SDS011;5974;42.710;27.258;2023-05-01T08:08:06;3.13;;;2.23;;
12348;SDS011;5974;42.710;27.258;2023-05-01T08:10:33;4.47;;;2.20;;
12348;SDS011;5974;42.710;27.258;2023-05-01T08:13:00;2.57;;;2.30;;
12348;SDS011;5974;42.710;27.258;2023-05-01T08:15:27;3.57;;;2.07;;
12348;SDS011;5974;42.710;27.258;2023-05-01T08:17:54;2.30;;;1.80;;
12348;SDS011;5974;42.710;27.258;2023-05-01T08:20:21;4.67;;;1.80;;
12348;SDS011;5974;42.710;27.258;2023-05-01T08:22:49;1.73;;;1.50;;
12348;SDS011;5974;42.710;27.258;2023-05-01T08:25:16;3.13;;;2.20;;
12348;SDS011;5974;42.710;27.258;2023-05-01T08:27:43;3.00;;;1.77;;
12348;SDS011;5974;42.710;27.258;2023-05-01T08:30:10;8.67;;;2.50;;
12348;SDS011;5974;42.710;27.258;2023-05-01T08:32:37;1.87;;;1.67;;
12348;SDS011;5974;42.710;27.258;2023-05-01T08:35:04;1.90;;;1.50;;
12348;SDS011;5974;42.710;27.258;2023-05-01T08:37:31;4.37;;;1.77;;
12348;SDS011;5974;42.710;27.258;2023-05-01T08:40:00;3.93;;;1.80;;
12348;SDS011;5974;42.710;27.258;2023-05-01T08:42:32;2.20;;;1.90;;
12348;SDS011;5974;42.710;27.258;2023-05-01T08:45:00;4.80;;;1.70;;
12348;SDS011;5974;42.710;27.258;2023-05-01T08:47:28;3.47;;;1.80;;
12348;SDS011;5974;42.710;27.258;2023-05-01T08:49:56;3.10;;;1.57;;
12348;SDS011;5974;42.710;27.258;2023-05-01T08:52:24;1.83;;;1.70;;
12348;SDS011;5974;42.710;27.258;2023-05-01T08:54:54;2.70;;;2.00;;
12348;SDS011;5974;42.710;27.258;2023-05-01T08:57:24;5.47;;;1.87;;
12348;SDS011;5974;42.710;27.258;2023-05-01T08:59:52;5.00;;;1.90;;
12348;SDS011;5974;42.710;27.258;2023-05-01T09:02:22;7.50;;;1.93;;
12348;SDS011;5974;42.710;27.258;2023-05-01T09:04:50;3.17;;;2.10;;
12348;SDS011;5974;42.710;27.258;2023-05-01T09:07:18;5.27;;;1.93;;
12348;SDS011;5974;42.710;27.258;2023-05-01T09:09:45;6.00;;;4.10;;
12348;SDS011;5974;42.710;27.258;2023-05-01T09:12:14;4.40;;;2.10;;
12348;SDS011;5974;42.710;27.258;2023-05-01T09:14:48;6.53;;;2.87;;
12348;SDS011;5974;42.710;27.258;2023-05-01T09:17:15;4.03;;;2.00;;
12348;SDS011;5974;42.710;27.258;2023-05-01T09:19:43;3.03;;;2.03;;
12348;SDS011;5974;42.710;27.258;2023-05-01T09:22:10;2.83;;;1.93;;
12348;SDS011;5974;42.710;27.258;2023-05-01T09:24:36;2.77;;;1.53;;
12348;SDS011;5974;42.710;27.258;2023-05-01T09:27:04;2.97;;;1.80;;
12348;SDS011;5974;42.710;27.258;2023-05-01T09:29:38;2.37;;;1.77;;
12348;SDS011;5974;42.710;27.258;2023-05-01T09:32:13;10.23;;;2.10;;
12348;SDS011;5974;42.710;27.258;2023-05-01T09:34:41;4.57;;;1.70;;
12348;SDS011;5974;42.710;27.258;2023-05-01T09:37:09;2.37;;;2.00;;
12348;SDS011;5974;42.710;27.258;2023-05-01T09:39:38;5.07;;;2.13;;
12348;SDS011;5974;42.710;27.258;2023-05-01T09:42:05;2.10;;;1.50;;
12348;SDS011;5974;42.710;27.258;2023-05-01T09:44:39;2.83;;;1.90;;
12348;SDS011;5974;42.710;27.258;2023-05-01T09:47:07;2.30;;;1.53;;
12348;SDS011;5974;42.710;27.258;2023-05-01T09:49:44;2.33;;;1.50;;
12348;SDS011;5974;42.710;27.258;2023-05-01T09:52:14;4.70;;;1.80;;
12348;SDS011;5974;42.710;27.258;2023-05-01T09:54:41;2.90;;;1.57;;
12348;SDS011;5974;42.710;27.258;2023-05-01T09:57:08;1.63;;;1.53;;
12348;SDS011;5974;42.710;27.258;2023-05-01T09:59:35;2.10;;;1.60;;
12348;SDS011;5974;42.710;27.258;2023-05-01T10:02:03;3.93;;;1.90;;
12348;SDS011;5974;42.710;27.258;2023-05-01T10:04:30;5.03;;;1.83;;
12348;SDS011;5974;42.710;27.258;2023-05-01T10:06:58;2.70;;;1.60;;
12348;SDS011;5974;42.710;27.258;2023-05-01T10:09:36;2.53;;;1.70;;
12348;SDS011;5974;42.710;27.258;2023-05-01T10:12:03;1.70;;;1.60;;
12348;SDS011;5974;42.710;27.258;2023-05-01T10:14:30;2.83;;;1.80;;
12348;SDS011;5974;42.710;27.258;2023-05-01T10:17:06;2.00;;;1.70;;
12348;SDS011;5974;42.710;27.258;2023-05-01T10:19:42;7.53;;;3.83;;
12348;SDS011;5974;42.710;27.258;2023-05-01T10:22:11;2.77;;;2.10;;
12348;SDS011;5974;42.710;27.258;2023-05-01T10:24:38;3.40;;;1.70;;
12348;SDS011;5974;42.710;27.258;2023-05-01T10:27:05;2.97;;;2.00;;
12348;SDS011;5974;42.710;27.258;2023-05-01T10:29:33;3.07;;;1.90;;
12348;SDS011;5974;42.710;27.258;2023-05-01T10:32:01;4.50;;;2.20;;
12348;SDS011;5974;42.710;27.258;2023-05-01T10:34:29;8.87;;;1.90;;
12348;SDS011;5974;42.710;27.258;2023-05-01T10:37:01;2.47;;;1.33;;
12348;SDS011;5974;42.710;27.258;2023-05-01T10:39:33;2.50;;;1.77;;
12348;SDS011;5974;42.710;27.258;2023-05-01T10:42:02;2.73;;;1.70;;
12348;SDS011;5974;42.710;27.258;2023-05-01T10:44:29;3.23;;;1.70;;
12348;SDS011;5974;42.710;27.258;2023-05-01T10:46:56;1.67;;;1.30;;
12348;SDS011;5974;42.710;27.258;2023-05-01T10:49:23;4.53;;;1.87;;
12348;SDS011;5974;42.710;27.258;2023-05-01T10:51:56;3.20;;;1.73;;
12348;SDS011;5974;42.710;27.258;2023-05-01T10:54:25;5.33;;;1.87;;
12348;SDS011;5974;42.710;27.258;2023-05-01T10:56:54;1.97;;;1.57;;
12348;SDS011;5974;42.710;27.258;2023-05-01T10:59:22;10.03;;;1.70;;
12348;SDS011;5974;42.710;27.258;2023-05-01T11:01:50;5.77;;;1.73;;
12348;SDS011;5974;42.710;27.258;2023-05-01T11:07:18;2.53;;;1.40;;
12348;SDS011;5974;42.710;27.258;2023-05-01T11:09:46;2.93;;;1.50;;
12348;SDS011;5974;42.710;27.258;2023-05-01T11:15:28;1.90;;;1.73;;
12348;SDS011;5974;42.710;27.258;2023-05-01T11:17:56;3.60;;;1.80;;
12348;SDS011;5974;42.710;27.258;2023-05-01T11:23:17;2.20;;;1.30;;
12348;SDS011;5974;42.710;27.258;2023-05-01T11:25:46;2.27;;;1.50;;
12348;SDS011;5974;42.710;27.258;2023-05-01T11:28:19;2.67;;;1.50;;
12348;SDS011;5974;42.710;27.258;2023-05-01T11:30:49;2.20;;;1.50;;
12348;SDS011;5974;42.710;27.258;2023-05-01T11:33:22;3.23;;;1.60;;
12348;SDS011;5974;42.710;27.258;2023-05-01T11:35:58;2.73;;;1.50;;
12348;SDS011;5974;42.710;27.258;2023-05-01T11:38:26;1.53;;;1.43;;
12348;SDS011;5974;42.710;27.258;2023-05-01T11:40:53;4.50;;;1.30;;
12348;SDS011;5974;42.710;27.258;2023-05-01T11:43:27;1.70;;;1.60;;
12348;SDS011;5974;42.710;27.258;2023-05-01T11:45:54;2.70;;;1.60;;
12348;SDS011;5974;42.710;27.258;2023-05-01T11:48:27;1.40;;;1.30;;
12348;SDS011;5974;42.710;27.258;2023-05-01T11:50:54;2.00;;;1.53;;
12348;SDS011;5974;42.710;27.258;2023-05-01T11:53:21;3.30;;;1.60;;
12348;SDS011;5974;42.710;27.258;2023-05-01T11:55:48;1.53;;;1.30;;
12348;SDS011;5974;42.710;27.258;2023-05-01T11:58:15;2.03;;;1.33;;
12348;SDS011;5974;42.710;27.258;2023-05-01T12:00:43;3.13;;;1.60;;
12348;SDS011;5974;42.710;27.258;2023-05-01T12:03:15;3.43;;;1.73;;
12348;SDS011;5974;42.710;27.258;2023-05-01T12:05:42;2.00;;;1.50;;
12348;SDS011;5974;42.710;27.258;2023-05-01T12:08:11;1.50;;;1.40;;
12348;SDS011;5974;42.710;27.258;2023-05-01T12:10:42;2.17;;;1.40;;
12348;SDS011;5974;42.710;27.258;2023-05-01T12:13:11;1.60;;;1.30;;
12348;SDS011;5974;42.710;27.258;2023-05-01T12:15:39;3.13;;;1.60;;
12348;SDS011;5974;42.710;27.258;2023-05-01T12:18:09;4.10;;;1.33;;
12348;SDS011;5974;42.710;27.258;2023-05-01T12:20:38;5.67;;;1.57;;
12348;SDS011;5974;42.710;27.258;2023-05-01T12:23:05;1.90;;;1.50;;
12348;SDS011;5974;42.710;27.258;2023-05-01T12:25:34;3.67;;;1.60;;
12348;SDS011;5974;42.710;27.258;2023-05-01T12:28:02;3.50;;;2.00;;
12348;SDS011;5974;42.710;27.258;2023-05-01T12:30:34;2.93;;;1.50;;
12348;SDS011;5974;42.710;27.258;2023-05-01T12:33:06;3.17;;;1.50;;
12348;SDS011;5974;42.710;27.258;2023-05-01T12:35:36;3.53;;;1.47;;
12348;SDS011;5974;42.710;27.258;2023-05-01T12:38:13;2.30;;;1.50;;
12348;SDS011;5974;42.710;27.258;2023-05-01T12:40:51;2.80;;;1.50;;
12348;SDS011;5974;42.710;27.258;2023-05-01T12:43:19;3.30;;;1.40;;
12348;SDS011;5974;42.710;27.258;2023-05-01T12:45:49;3.93;;;1.30;;
12348;SDS011;5974;42.710;27.258;2023-05-01T12:48:18;4.83;;;1.80;;
12348;SDS011;5974;42.710;27.258;2023-05-01T12:50:47;2.87;;;1.57;;
12348;SDS011;5974;42.710;27.258;2023-05-01T12:53:18;3.37;;;1.50;;
12348;SDS011;5974;42.710;27.258;2023-05-01T12:55:46;3.93;;;1.40;;
12348;SDS011;5974;42.710;27.258;2023-05-01T12:58:15;3.13;;;1.50;;
12348;SDS011;5974;42.710;27.258;2023-05-01T13:00:46;2.13;;;1.60;;
12348;SDS011;5974;42.710;27.258;2023-05-01T13:03:14;3.27;;;1.40;;
12348;SDS011;5974;42.710;27.258;2023-05-01T13:05:52;2.37;;;1.77;;
12348;SDS011;5974;42.710;27.258;2023-05-01T13:08:23;5.77;;;1.93;;
12348;SDS011;5974;42.710;27.258;2023-05-01T13:10:52;2.00;;;1.53;;
12348;SDS011;5974;42.710;27.258;2023-05-01T13:13:23;4.43;;;2.00;;
12348;SDS011;5974;42.710;27.258;2023-05-01T13:15:51;3.83;;;1.37;;
12348;SDS011;5974;42.710;27.258;2023-05-01T13:18:18;2.63;;;1.50;;
12348;SDS011;5974;42.710;27.258;2023-05-01T13:20:45;6.33;;;1.70;;
12348;SDS011;5974;42.710;27.258;2023-05-01T13:23:13;5.20;;;1.60;;
12348;SDS011;5974;42.710;27.258;2023-05-01T13:25:41;1.87;;;1.50;;
12348;SDS011;5974;42.710;27.258;2023-05-01T13:28:08;4.00;;;1.50;;
12348;SDS011;5974;42.710;27.258;2023-05-01T13:30:35;5.07;;;1.53;;
12348;SDS011;5974;42.710;27.258;2023-05-01T13:33:03;1.70;;;1.33;;
12348;SDS011;5974;42.710;27.258;2023-05-01T13:35:31;4.27;;;1.63;;
12348;SDS011;5974;42.710;27.258;2023-05-01T13:37:59;1.80;;;1.60;;
12348;SDS011;5974;42.710;27.258;2023-05-01T13:40:38;3.10;;;1.60;;
12348;SDS011;5974;42.710;27.258;2023-05-01T13:43:06;1.90;;;1.47;;
12348;SDS011;5974;42.710;27.258;2023-05-01T13:45:38;2.70;;;1.70;;
12348;SDS011;5974;42.710;27.258;2023-05-01T13:48:05;4.57;;;1.77;;
12348;SDS011;5974;42.710;27.258;2023-05-01T13:50:33;2.30;;;1.60;;
12348;SDS011;5974;42.710;27.258;2023-05-01T13:53:01;3.63;;;1.60;;
12348;SDS011;5974;42.710;27.258;2023-05-01T13:55:28;4.77;;;1.70;;
12348;SDS011;5974;42.710;27.258;2023-05-01T13:57:56;1.67;;;1.50;;
12348;SDS011;5974;42.710;27.258;2023-05-01T14:00:23;3.43;;;1.40;;
12348;SDS011;5974;42.710;27.258;2023-05-01T14:02:51;2.00;;;1.60;;
12348;SDS011;5974;42.710;27.258;2023-05-01T14:05:22;3.07;;;1.43;;
12348;SDS011;5974;42.710;27.258;2023-05-01T14:07:52;2.63;;;1.37;;
12348;SDS011;5974;42.710;27.258;2023-05-01T14:10:21;4.13;;;1.53;;
12348;SDS011;5974;42.710;27.258;2023-05-01T14:12:49;1.97;;;1.50;;
12348;SDS011;5974;42.710;27.258;2023-05-01T14:15:17;7.57;;;1.50;;
12348;SDS011;5974;42.710;27.258;2023-05-01T14:17:44;4.90;;;1.70;;
12348;SDS011;5974;42.710;27.258;2023-05-01T14:20:11;2.40;;;1.80;;
12348;SDS011;5974;42.710;27.258;2023-05-01T14:22:41;3.80;;;1.50;;
12348;SDS011;5974;42.710;27.258;2023-05-01T14:25:17;1.90;;;1.50;;
12348;SDS011;5974;42.710;27.258;2023-05-01T14:27:48;1.90;;;1.67;;
12348;SDS011;5974;42.710;27.258;2023-05-01T14:30:18;3.13;;;1.40;;
12348;SDS011;5974;42.710;27.258;2023-05-01T14:32:53;3.90;;;1.73;;
12348;SDS011;5974;42.710;27.258;2023-05-01T14:35:20;5.23;;;1.63;;
12348;SDS011;5974;42.710;27.258;2023-05-01T14:37:48;1.50;;;1.37;;
12348;SDS011;5974;42.710;27.258;2023-05-01T14:40:16;2.77;;;1.57;;
12348;SDS011;5974;42.710;27.258;2023-05-01T14:42:44;7.23;;;1.80;;
12348;SDS011;5974;42.710;27.258;2023-05-01T14:45:12;2.33;;;1.50;;
12348;SDS011;5974;42.710;27.258;2023-05-01T14:47:44;4.40;;;1.87;;
12348;SDS011;5974;42.710;27.258;2023-05-01T14:50:17;15.13;;;2.87;;
12348;SDS011;5974;42.710;27.258;2023-05-01T14:52:45;3.43;;;1.80;;
12348;SDS011;5974;42.710;27.258;2023-05-01T14:55:12;3.67;;;2.67;;
12348;SDS011;5974;42.710;27.258;2023-05-01T14:57:43;2.53;;;2.33;;
12348;SDS011;5974;42.710;27.258;2023-05-01T15:00:11;2.63;;;2.17;;
12348;SDS011;5974;42.710;27.258;2023-05-01T15:02:39;2.60;;;1.47;;